Portada
METAR-TAF:

METAR-TAF

Aeroports :

Barnaül, Rússia

latitud: 53-26N, longitud: 083-31E, altitud: 252 m

Observació

L'informe es va fer fa 39 minuts, a les 04:00 UTC
Vent 10 kt del Sud/Sud-Oest
Temperatura 2°C
Humitat 51%
Pressió 1030 hPa
Visibilitat 10 km o més
sense núvols per sota de 1500 mi sense presència de cumulonimbus.

METAR: UNBB 300400Z 20005MPS CAVOK 02/M07 Q1030 R24/CLRD66 NOSIG RMK QFE750

Hora: 11:39 (04:39 UTC)

Pronòstic

L'informe es va fer fa 2 hores i 39 minuts, a les 02:00 UTC
Pronòstic vàlid del 30 a les 03 UTC al 31 a les 03 UTC
Vent 12 kt del Sud/Sud-Oest amb ràfegues de 23 kt
Visibilitat 10 km o més
Núvols disperses a una alçada de 4000 ft
Evolucionant progressivament
l' 30 a les 12 UTC al 30 a les 14 UTC
Vent 6 kt del Sud amb ràfegues de 16 kt

TAF: UNBB 300200Z 3003/3103 21006G12MPS 9999 SCT040 BECMG 3012/3014 19003G08MPS

Observacions i pronòstics meteorològics de més de 4000 aeroports (METAR i TAF).

Les estacions disponibles són els punts grocs i vermells al mapa.

Posi el ratolí al punt desitjat per veure el nom de l'estació.

Feu clic per veure les observacions i els pronòstics meteorològics.

Per canviar el mapa: feu clic els botons verds amb una creu de color negre per apropar; al botó verd amb un guió per allunyar la imatge; o en les fletxes verdes per a mapes adjacents.


METAR-TAF: